Flight Track Log - Related Links

Times and Time Zones

All times are in EDT time to prevent confusion due to time zone crossing. See the EJA929 flight status page for this flight to view local times or setup timezone preferences in your user account.

Time Position Orientation Groundspeed Altitude Reporting Facility
EDT Latitude Longitude Course Direction KTS MPH feet Rate Location/Type
Wed 08:16:37 PM 45.7594 -111.1275 148° Southeast 199 229 5,400  Level Salt Lake Center
Wed 08:17:39 PM 45.7189 -111.0667 134° Southeast 212 244 8,500 3,484 Climbing Salt Lake Center
Wed 08:18:41 PM 45.6694 -110.9936 134° Southeast 239 275 12,600 3,756 Climbing Salt Lake Center
Wed 08:19:42 PM 45.6519 -110.8622 101° East 287 330 16,200 2,585 Climbing Salt Lake Center
Wed 08:20:44 PM 45.6033 -110.7597 124° Southeast 333 383 17,900 1,597 Climbing Salt Lake Center
Wed 08:21:00 PM 45.2448 -110.4287 148° Southeast  Level FlightAware Approximate
Wed 08:21:46 PM 45.5208 -110.6831 147° Southeast 350 403 19,500  Level Salt Lake Center
Wed 08:22:48 PM 45.4331 -110.6022 147° Southeast 372 428 21,100 1,597 Climbing Salt Lake Center
Wed 08:23:50 PM 45.3353 -110.5117 147° Southeast 393 452 22,800 1,597 Climbing Salt Lake Center
Wed 08:24:52 PM 45.2403 -110.4247 147° Southeast 406 467 24,400 1,548 Climbing Salt Lake Center
Wed 08:25:54 PM 45.1422 -110.3358 147° Southeast 417 480 26,000 1,694 Climbing Salt Lake Center
Wed 08:26:56 PM 45.0272 -110.2289 147° Southeast 423 487 27,900 1,659 Climbing Salt Lake Center
Wed 08:27:57 PM 44.9297 -110.1364 146° Southeast 435 501 29,400 1,512 Climbing Salt Lake Center
Wed 08:28:59 PM 44.8394 -110.0194 137° Southeast 454 522 31,000 1,645 Climbing Salt Lake Center
Wed 08:30:01 PM 44.7306 -109.8797 138° Southeast 471 542 32,800 1,597 Climbing Salt Lake Center
Wed 08:31:03 PM 44.6342 -109.7583 138° Southeast 479 551 34,300 1,645 Climbing Salt Lake Center
Wed 08:32:05 PM 44.5253 -109.6153 137° Southeast 483 556 36,200 1,306 Climbing Salt Lake Center
Wed 08:33:07 PM 44.4281 -109.4931 138° Southeast 487 560 37,000 387 Climbing Salt Lake Center
Wed 08:34:09 PM 44.3058 -109.3406 138° Southeast 520 598 37,000  Level Salt Lake Center
Wed 08:35:10 PM 44.1903 -109.1964 138° Southeast 552 635 37,000  Level Salt Lake Center
Wed 08:36:12 PM 44.0722 -109.0492 138° Southeast 569 655 37,000  Level Salt Lake Center
Wed 08:37:14 PM 43.9536 -108.9042 139° Southeast 572 658 37,000  Level Salt Lake Center
Wed 08:38:16 PM 43.8350 -108.7583 138° Southeast 573 659 37,000  Level Salt Lake Center
Wed 08:39:18 PM 43.7167 -108.6114 138° Southeast 574 661 37,000  Level Salt Lake Center
Wed 08:40:20 PM 43.5736 -108.4372 139° Southeast 574 661 37,000  Level Salt Lake Center
Wed 08:41:21 PM 43.4503 -108.3039 142° Southeast 569 655 37,000 390 Level Salt Lake Center
Wed 08:42:23 PM 43.3069 -108.2347 161° South 548 631 37,800 968 Climbing Salt Lake Center
Wed 08:43:25 PM 43.1644 -108.1733 163° South 541 623 39,000 1,161 Climbing Salt Lake Center
Wed 08:44:27 PM 43.0256 -108.1133 162° South 529 609 40,200 968 Climbing Salt Lake Center
Wed 08:45:29 PM 42.8658 -108.0456 163° South 524 603 41,000 390 Climbing Salt Lake Center
Wed 08:46:30 PM 42.7300 -107.9886 163° South 528 608 41,000  Level Salt Lake Center
Wed 08:47:32 PM 42.5722 -107.9214 163° South 529 609 41,000  Level Salt Lake Center
Wed 08:48:34 PM 42.4403 -107.8664 163° South 521 600 41,000  Level Salt Lake Center
Wed 08:49:35 PM 42.3111 -107.8119 163° South 511 588 41,000  Level Salt Lake Center
Wed 08:50:37 PM 42.1583 -107.7478 163° South 510 587 41,000  Level Salt Lake Center
Wed 08:51:20 PM 42.0733 -107.7119 163° South 506 582 41,000  Level Denver Center
Wed 08:52:22 PM 41.9222 -107.6486 163° South 505 581 41,000  Level Denver Center
Wed 08:53:24 PM 41.7939 -107.5956 163° South 502 578 41,000  Level Denver Center
Wed 08:54:26 PM 41.6594 -107.4892 149° Southeast 505 581 41,000  Level Denver Center
Wed 08:55:28 PM 41.5478 -107.3828 144° Southeast 511 588 41,000  Level Denver Center
Wed 08:56:29 PM 41.4372 -107.2756 144° Southeast 513 590 41,000  Level Denver Center
Wed 08:57:31 PM 41.3083 -107.1519 144° Southeast 513 590 41,000  Level Denver Center
Wed 08:58:33 PM 41.1961 -107.0567 147° Southeast 503 579 41,000  Level Denver Center
Wed 08:59:35 PM 41.0536 -106.9639 154° Southeast 507 583 41,000  Level Denver Center
Wed 09:00:36 PM 40.9328 -106.8861 154° Southeast 505 581 41,000  Level Denver Center
Wed 09:01:38 PM 40.7964 -106.7856 151° Southeast 503 579 41,000  Level Denver Center
Wed 09:02:40 PM 40.6964 -106.6828 142° Southeast 511 588 41,000  Level Denver Center
Wed 09:03:41 PM 40.5833 -106.5700 143° Southeast 509 586 41,000  Level Denver Center
Wed 09:04:43 PM 40.4536 -106.4400 143° Southeast 504 580 41,000  Level Denver Center
Wed 09:05:44 PM 40.3464 -106.3342 143° Southeast 502 578 41,000  Level Denver Center
Wed 09:06:46 PM 40.2217 -106.2100 143° Southeast 503 579 41,000  Level Denver Center
Wed 09:07:48 PM 40.1142 -106.1031 143° Southeast 495 570 41,000  Level Denver Center
Wed 09:08:49 PM 40.0017 -105.9933 143° Southeast 503 579 41,000  Level Denver Center
Wed 09:09:51 PM 39.8900 -105.8839 143° Southeast 504 580 41,000  Level Denver Center
Wed 09:10:52 PM 39.7772 -105.7750 143° Southeast 509 586 41,000  Level Denver Center
Wed 09:11:54 PM 39.6658 -105.6683 144° Southeast 502 578 41,000  Level Denver Center
Wed 09:12:56 PM 39.5542 -105.5614 144° Southeast 502 578 41,000  Level Denver Center
Wed 09:13:57 PM 39.4194 -105.4322 143° Southeast 503 579 41,000  Level Denver Center
Wed 09:14:59 PM 39.3061 -105.3247 144° Southeast 507 583 41,000  Level Denver Center
Wed 09:16:00 PM 39.1936 -105.2189 144° Southeast 507 583 41,000 49 Level Denver Center
Wed 09:17:02 PM 39.0814 -105.1097 143° Southeast 508 585 41,100 726 Climbing Denver Center
Wed 09:18:04 PM 38.9694 -105.0039 144° Southeast 504 580 42,500 927 Climbing Denver Center
Wed 09:19:05 PM 38.8583 -104.8986 144° Southeast 499 574 43,000 244 Climbing Denver Center
Wed 09:20:07 PM 38.7233 -104.7708 144° Southeast 505 581 43,000  Level Denver Center
Wed 09:21:08 PM 38.6086 -104.6661 144° Southeast 507 583 43,000  Level Denver Center
Wed 09:22:10 PM 38.4961 -104.5606 144° Southeast 503 579 43,000  Level Denver Center
Wed 09:23:12 PM 38.3836 -104.4556 144° Southeast 502 578 43,000  Level Denver Center
Wed 09:24:13 PM 38.2733 -104.3553 144° Southeast 495 570 43,000  Level Denver Center
Wed 09:25:15 PM 38.1464 -104.2394 144° Southeast 500 575 43,000 195 Level Denver Center
Wed 09:26:16 PM 38.0378 -104.1406 144° Southeast 500 575 43,400 634 Climbing Denver Center
Wed 09:27:18 PM 37.9111 -104.0242 144° Southeast 501 577 44,300 871 Climbing Denver Center
Wed 09:28:20 PM 37.8031 -103.9261 144° Southeast 495 570 45,200 829 Climbing Denver Center
Wed 09:29:21 PM 37.7144 -103.8447 144° Southeast 489 563 46,000 878 Climbing Denver Center
Wed 09:30:23 PM 37.5733 -103.7175 144° Southeast 480 552 47,000 484 Climbing Denver Center
Wed 09:31:25 PM 37.4686 -103.6244 145° Southeast 478 550 47,000  Level Denver Center
Wed 09:32:26 PM 37.3628 -103.5308 145° Southeast 483 556 47,000  Level Denver Center
Wed 09:33:13 PM 37.2742 -103.4522 145° Southeast 486 559 47,000  Level Albuquerque Center
Wed 09:34:14 PM 37.1497 -103.3428 145° Southeast 488 562 47,000  Level Albuquerque Center
Wed 09:35:15 PM 37.0428 -103.2461 144° Southeast 492 566 47,000 49 Level Albuquerque Center
Wed 09:36:17 PM 36.9336 -103.1522 145° Southeast 496 571 47,100  Climbing Albuquerque Center
Wed 09:37:18 PM 36.8108 -103.0450 145° Southeast 484 557 47,000 -49 Descending Albuquerque Center
Wed 09:38:19 PM 36.7042 -102.9522 145° Southeast 486 559 47,000  Level Albuquerque Center
Wed 09:39:20 PM 36.5989 -102.8594 145° Southeast 485 558 47,000  Level Albuquerque Center
Wed 09:40:22 PM 36.4656 -102.7433 145° Southeast 487 560 47,000  Level Albuquerque Center
Wed 09:41:23 PM 36.3556 -102.6489 145° Southeast 483 556 47,000  Level Albuquerque Center
Wed 09:42:24 PM 36.2447 -102.5533 145° Southeast 485 558 47,000  Level Albuquerque Center
Wed 09:43:25 PM 36.1339 -102.4583 145° Southeast 484 557 47,000  Level Albuquerque Center
Wed 09:44:27 PM 36.0239 -102.3633 145° Southeast 483 556 47,000 195 Level Albuquerque Center
Wed 09:45:28 PM 35.9136 -102.2700 146° Southeast 483 556 47,400 541 Climbing Albuquerque Center
Wed 09:46:29 PM 35.8056 -102.1789 146° Southeast 474 545 48,100 639 Climbing Albuquerque Center
Wed 09:47:30 PM 35.7014 -102.0892 145° Southeast 463 533 48,700 537 Climbing Albuquerque Center
Wed 09:48:32 PM 35.5975 -102.0014 146° Southeast 457 526 49,200 585 Climbing Albuquerque Center
Wed 09:49:33 PM 35.4797 -101.9017 145° Southeast 449 517 49,900 590 Climbing Albuquerque Center
Wed 09:50:34 PM 35.3783 -101.8178 146° Southeast 441 507 50,400 439 Climbing Albuquerque Center
Wed 09:51:36 PM 35.2800 -101.7342 145° Southeast 432 497 50,800 293 Climbing Albuquerque Center
Wed 09:52:37 PM 35.1975 -101.6386 137° Southeast 424 488 51,000 98 Climbing Albuquerque Center
Wed 09:53:38 PM 35.1269 -101.5303 129° Southeast 409 471 51,000  Level Albuquerque Center
Wed 09:54:39 PM 35.0564 -101.4203 128° Southeast 409 471 51,000  Level Albuquerque Center
Wed 09:55:41 PM 34.9739 -101.2944 129° Southeast 414 476 51,000 -293 Level Albuquerque Center
Wed 09:56:42 PM 34.9025 -101.1853 129° Southeast 413 475 50,400 -885 Descending Albuquerque Center
Wed 09:57:43 PM 34.8272 -101.0697 128° Southeast 427 491 49,200 -689 Descending Albuquerque Center
Wed 09:58:44 PM 34.7475 -100.9478 128° Southeast 453 521 49,000 -98 Descending Albuquerque Center
Wed 09:59:46 PM 34.6675 -100.8261 129° Southeast 459 528 49,000  Level Albuquerque Center
Wed 10:00:47 PM 34.5869 -100.7042 129° Southeast 463 533 49,000  Level Albuquerque Center
Wed 10:01:48 PM 34.5058 -100.5825 129° Southeast 463 533 49,000 -246 Level Albuquerque Center
Wed 10:02:49 PM 34.4253 -100.4597 128° Southeast 465 535 48,500 -634 Descending Albuquerque Center
Wed 10:03:51 PM 34.3419 -100.3364 129° Southeast 471 542 47,700 -829 Descending Albuquerque Center
Wed 10:04:52 PM 34.2403 -100.1844 129° Southeast 481 554 46,800 -787 Descending Albuquerque Center
Wed 10:05:53 PM 34.1644 -100.0703 129° Southeast 492 566 46,100 -732 Descending Albuquerque Center
Wed 10:06:55 PM 34.0783 -99.9422 129° Southeast 493 567 45,300 -537 Descending Albuquerque Center
Wed 10:07:56 PM 33.9931 -99.8172 129° Southeast 486 559 45,000 -148 Descending Albuquerque Center
Wed 10:08:57 PM 33.8933 -99.6711 129° Southeast 474 545 45,000  Level Albuquerque Center
Wed 10:10:17 PM 33.7944 -99.5231 129° Southeast 469 540 45,000  Level Fort Worth Center
Wed 10:11:17 PM 33.7128 -99.4061 130° Southeast 464 534 45,000  Level Fort Worth Center
Wed 10:12:17 PM 33.6333 -99.2869 129° Southeast 464 534 45,000  Level Fort Worth Center
Wed 10:13:17 PM 33.5558 -99.1733 129° Southeast 459 528 45,000  Level Fort Worth Center
Wed 10:14:17 PM 33.4739 -99.0594 131° Southeast 459 528 45,000  Level Fort Worth Center
Wed 10:15:17 PM 33.3939 -98.9411 129° Southeast 459 528 45,000  Level Fort Worth Center
Wed 10:16:17 PM 33.3158 -98.8303 130° Southeast 449 517 45,000  Level Fort Worth Center
Wed 10:17:17 PM 33.2358 -98.7150 130° Southeast 449 517 45,000  Level Fort Worth Center
Wed 10:18:17 PM 33.1533 -98.5969 130° Southeast 454 522 45,000  Level Fort Worth Center
Wed 10:19:17 PM 33.0731 -98.4844 130° Southeast 454 522 45,000  Level Fort Worth Center
Wed 10:20:17 PM 32.9861 -98.3769 134° Southeast 449 517 45,000  Level Fort Worth Center
Wed 10:21:17 PM 32.8950 -98.2669 135° Southeast 449 517 45,000  Level Fort Worth Center
Wed 10:22:17 PM 32.8061 -98.1575 134° Southeast 460 529 45,000  Level Fort Worth Center
Wed 10:23:17 PM 32.7147 -98.0456 134° Southeast 465 535 45,000  Level Fort Worth Center
Wed 10:24:17 PM 32.6214 -97.9339 135° Southeast 465 535 45,000  Level Fort Worth Center
Wed 10:25:17 PM 32.5319 -97.8250 134° Southeast 459 528 45,000  Level Fort Worth Center
Wed 10:26:17 PM 32.4281 -97.7014 135° Southeast 465 535 45,000  Level Fort Worth Center
Wed 10:27:17 PM 32.3383 -97.5928 134° Southeast 465 535 45,000  Level Fort Worth Center
Wed 10:28:17 PM 32.2467 -97.4797 134° Southeast 460 529 45,000  Level Fort Worth Center
Wed 10:29:17 PM 32.1550 -97.3692 134° Southeast 460 529 45,000  Level Fort Worth Center
Wed 10:30:17 PM 32.0628 -97.2614 135° Southeast 460 529 45,000  Level Fort Worth Center
Wed 10:31:17 PM 31.9708 -97.1539 135° Southeast 460 529 45,000  Level Fort Worth Center
Wed 10:32:17 PM 31.8933 -97.0536 132° Southeast 460 529 45,000  Level Fort Worth Center
Wed 10:33:17 PM 31.7992 -96.9442 135° Southeast 460 529 45,000  Level Fort Worth Center
Wed 10:34:17 PM 31.6986 -96.8469 141° Southeast 466 536 45,000  Level Fort Worth Center
Wed 10:35:34 PM 31.5208 -96.8064 169° South 491 565 45,000 -522 Level Houston Center
Wed 10:36:35 PM 31.3867 -96.7856 172° South 483 556 43,800 -2,311 Descending Houston Center
Wed 10:37:36 PM 31.2450 -96.7625 172° South 500 575 40,300 -3,512 Descending Houston Center
Wed 10:38:38 PM 31.0961 -96.7386 172° South 526 605 36,600 -3,707 Descending Houston Center
Wed 10:39:39 PM 30.9569 -96.6778 159° South 531 611 32,700 -3,738 Descending Houston Center
Wed 10:40:40 PM 30.8294 -96.5986 152° Southeast 515 593 29,000 -3,590 Descending Houston Center
Wed 10:41:41 PM 30.7053 -96.5200 151° Southeast 501 577 25,400 -3,344 Descending Houston Center
Wed 10:42:42 PM 30.5867 -96.4450 151° Southeast 484 557 22,200 -3,393 Descending Houston Center
Wed 10:43:43 PM 30.4736 -96.3736 151° Southeast 463 533 18,500 -3,366 Descending Houston Center
Wed 10:44:45 PM 30.3658 -96.3053 151° Southeast 442 509 15,300 -3,184 Descending Houston Center
Wed 10:45:21 PM 30.2944 -96.2633 153° Southeast 421 484 13,300 -2,660 Descending Houston Center
Wed 10:46:22 PM 30.1950 -96.2022 152° Southeast 402 463 11,000 -1,078 Descending Houston Center
Wed 10:47:29 PM 30.0872 -96.1442 155° Southeast 391 450 11,000 -94 Level Houston Center
Wed 10:48:30 PM 29.9897 -96.0853 152° Southeast 369 425 10,800 -545 Descending Houston Center
Wed 10:49:30 PM 29.9411 -96.0089 126° Southeast 285 328 9,900 -1,357 Descending Houston Center
Wed 10:50:25 PM 29.9136 -95.9325 113° Southeast 282 325 8,200 -1,820 Descending Houston Center
Wed 10:51:32 PM 29.8825 -95.8422 112° Southeast 272 313 6,200 -1,734 Descending Houston Center
Wed 10:52:33 PM 29.8547 -95.7636 112° Southeast 261 300 4,500 -1,086 Descending Houston Center
Wed 10:53:28 PM 29.8314 -95.6917 110° East 257 296 4,100 -764 Descending Houston Center
Wed 10:54:23 PM 29.8067 -95.6247 113° Southeast 258 297 3,100 -1,348 Descending Houston Center
Wed 10:54:57 PM 29.7925 -95.5803 110° East 257 296 2,100 -695 Descending Houston Center
Wed 10:55:58 PM 29.7658 -95.5042 112° Southeast 257 296 2,000 -49 Descending Houston Center
Wed 10:56:59 PM 29.7542 -95.4264 100° East 263 303 2,000  Level Houston Center
Wed 10:58:00 PM 29.7233 -95.3714 123° Southeast 228 262 2,000 -393 Level Houston Center
Wed 10:59:01 PM 29.6942 -95.3375 135° Southeast 178 205 1,200 -689 Descending Houston Center
Wed 11:00:02 PM 29.6728 -95.3111 133° Southeast 138 159 600 -590 Descending Houston Center
Wed 11:03:00 PM 29.6454 -95.2789 116° Southeast  Level Estimated

Login

Don't have an account? Register now (free) for customized features, flight alerts, and more!